createdAt,value
2018-06-03T00:01:49.107Z,5.00
2018-06-03T00:04:16.723Z,4.97
2018-06-03T00:06:44.300Z,4.77
2018-06-03T00:09:11.871Z,4.60
2018-06-03T00:21:00.424Z,4.97
2018-06-03T00:23:28.031Z,5.10
2018-06-03T00:25:55.651Z,5.47
2018-06-03T00:37:32.341Z,5.33
2018-06-03T00:39:59.915Z,5.10
2018-06-03T00:42:27.551Z,4.90
2018-06-03T00:54:03.878Z,4.67
2018-06-03T00:56:43.124Z,4.97
2018-06-03T00:59:10.799Z,4.93
2018-06-03T01:10:45.701Z,5.00
2018-06-03T01:13:13.326Z,4.80
2018-06-03T01:15:40.864Z,5.33
2018-06-03T01:27:17.111Z,4.57
2018-06-03T01:29:44.656Z,5.03
2018-06-03T01:32:12.218Z,4.30
2018-06-03T01:34:39.896Z,4.97
2018-06-03T01:46:16.398Z,4.87
2018-06-03T01:48:43.959Z,4.93
2018-06-03T01:51:11.563Z,5.03
2018-06-03T02:02:48.788Z,4.60
2018-06-03T02:05:16.327Z,5.00
2018-06-03T02:07:43.867Z,4.93
2018-06-03T02:19:20.103Z,4.80
2018-06-03T02:21:47.651Z,5.10
2018-06-03T02:24:15.202Z,4.90
2018-06-03T02:35:51.287Z,5.70
2018-06-03T02:38:18.901Z,5.73
2018-06-03T02:40:46.521Z,4.93
2018-06-03T02:52:12.675Z,5.10
2018-06-03T02:54:40.213Z,5.53
2018-06-03T02:57:07.773Z,5.30
2018-06-03T02:59:35.335Z,4.70
2018-06-03T03:11:12.953Z,5.03
2018-06-03T03:13:40.532Z,5.13
2018-06-03T03:16:08.095Z,5.23
2018-06-03T03:27:44.767Z,5.23
2018-06-03T03:30:12.340Z,5.00
2018-06-03T03:32:39.975Z,5.00
2018-06-03T03:44:16.239Z,5.10
2018-06-03T03:46:43.861Z,5.30
2018-06-03T03:49:11.421Z,5.10
2018-06-03T04:00:30.835Z,5.17
2018-06-03T04:02:58.359Z,5.30
2018-06-03T04:05:26.071Z,5.37
2018-06-03T04:07:53.671Z,5.40
2018-06-03T04:19:30.370Z,5.90
2018-06-03T04:21:57.926Z,6.37
2018-06-03T04:24:25.643Z,5.63
2018-06-03T04:35:43.021Z,5.50
2018-06-03T04:38:10.781Z,5.77
2018-06-03T04:40:38.379Z,5.67
2018-06-03T04:52:04.178Z,4.87
2018-06-03T04:54:31.744Z,5.13
2018-06-03T04:56:59.338Z,4.87
2018-06-03T04:59:31.527Z,5.60
2018-06-03T05:11:11.628Z,5.87
2018-06-03T05:13:39.373Z,5.63
2018-06-03T05:16:07.009Z,6.00
2018-06-03T05:27:43.067Z,5.30
2018-06-03T05:30:10.645Z,5.70
2018-06-03T05:32:38.291Z,5.00
2018-06-03T05:44:15.005Z,5.73
2018-06-03T05:46:42.645Z,5.60
2018-06-03T05:49:10.257Z,6.27
2018-06-03T06:00:46.787Z,5.27
2018-06-03T06:03:14.332Z,4.93
2018-06-03T06:05:42.025Z,5.17
2018-06-03T06:19:43.815Z,4.87
2018-06-03T06:22:11.455Z,5.43
2018-06-03T06:24:39.033Z,4.83
2018-06-03T06:36:15.337Z,4.33
2018-06-03T06:38:42.901Z,4.20
2018-06-03T06:41:10.461Z,4.50
2018-06-03T06:52:49.339Z,4.00
2018-06-03T06:55:16.933Z,3.90
2018-06-03T06:57:44.544Z,4.20
2018-06-03T07:08:50.587Z,4.10
2018-06-03T07:11:18.116Z,3.73
2018-06-03T07:13:47.504Z,3.93
2018-06-03T07:16:15.099Z,3.97
2018-06-03T07:27:20.123Z,3.80
2018-06-03T07:29:47.799Z,3.50
2018-06-03T07:32:15.341Z,3.70
2018-06-03T07:43:45.429Z,3.50
2018-06-03T07:46:12.975Z,3.30
2018-06-03T07:49:31.656Z,2.77
2018-06-03T08:01:09.004Z,2.23
2018-06-03T08:03:38.059Z,2.53
2018-06-03T08:06:07.262Z,3.00
2018-06-03T08:17:45.325Z,3.60
2018-06-03T08:20:14.355Z,3.40
2018-06-03T08:22:43.544Z,3.20
2018-06-03T08:34:14.627Z,2.97
2018-06-03T08:36:43.609Z,2.90
2018-06-03T08:39:12.659Z,2.90
2018-06-03T08:41:41.683Z,3.17
2018-06-03T08:53:01.139Z,2.90
2018-06-03T08:55:30.141Z,2.43
2018-06-03T08:57:59.229Z,2.30
2018-06-03T09:09:26.093Z,2.20
2018-06-03T09:11:56.471Z,2.37
2018-06-03T09:14:25.639Z,2.30
2018-06-03T09:27:27.814Z,2.30
2018-06-03T09:29:56.876Z,2.80
2018-06-03T09:32:26.259Z,2.90
2018-06-03T09:43:27.121Z,2.60
2018-06-03T09:46:06.278Z,2.30
2018-06-03T09:48:35.388Z,2.40
2018-06-03T10:00:02.792Z,2.40
2018-06-03T10:02:50.647Z,2.57
2018-06-03T10:05:19.623Z,2.63
2018-06-03T10:07:49.096Z,2.60
2018-06-03T10:19:26.336Z,2.70
2018-06-03T10:21:55.460Z,2.47
2018-06-03T10:24:24.726Z,2.50
2018-06-03T10:33:22.512Z,2.17
2018-06-03T10:35:52.660Z,2.30
2018-06-03T10:38:21.699Z,2.30
2018-06-03T10:40:50.806Z,1.97
2018-06-03T10:52:28.637Z,2.30
2018-06-03T10:54:57.567Z,2.10
2018-06-03T10:57:27.256Z,2.30
2018-06-03T11:10:28.837Z,2.00
2018-06-03T11:12:57.991Z,2.00
2018-06-03T11:15:27.086Z,2.20
2018-06-03T11:27:32.176Z,2.10
2018-06-03T11:30:01.611Z,2.17
2018-06-03T11:32:31.016Z,1.93
2018-06-03T11:35:24.209Z,1.90
2018-06-03T11:41:03.553Z,1.90
2018-06-03T11:43:56.318Z,1.90
2018-06-03T11:46:25.337Z,1.93
2018-06-03T11:48:54.455Z,2.00
2018-06-03T11:51:23.948Z,2.00
2018-06-03T11:54:03.133Z,2.40
2018-06-03T11:56:44.808Z,2.20
2018-06-03T11:59:24.437Z,2.07
2018-06-03T12:01:53.346Z,1.97
2018-06-03T12:04:22.146Z,2.00
2018-06-03T12:06:51.008Z,2.10
2018-06-03T12:09:20.407Z,1.90
2018-06-03T12:11:54.725Z,2.20
2018-06-03T12:14:31.615Z,2.40
2018-06-03T12:17:07.511Z,2.47
2018-06-03T12:19:36.571Z,2.00
2018-06-03T12:22:05.487Z,2.00
2018-06-03T12:24:34.407Z,2.00
2018-06-03T12:27:03.516Z,2.13
2018-06-03T12:29:35.491Z,2.40
2018-06-03T12:32:08.173Z,2.30
2018-06-03T12:34:40.048Z,2.20
2018-06-03T12:37:08.935Z,2.20
2018-06-03T12:39:37.644Z,2.30
2018-06-03T12:42:06.467Z,2.30
2018-06-03T12:44:35.751Z,2.30
2018-06-03T12:47:10.990Z,2.30
2018-06-03T12:49:42.841Z,2.47
2018-06-03T12:54:56.957Z,2.30
2018-06-03T12:57:25.854Z,2.47
2018-06-03T12:59:54.853Z,2.80
2018-06-03T13:02:27.616Z,2.40
2018-06-03T13:05:04.643Z,2.50
2018-06-03T13:07:40.495Z,2.53
2018-06-03T13:10:11.816Z,2.20
2018-06-03T13:12:40.699Z,2.73
2018-06-03T13:15:09.598Z,2.53
2018-06-03T13:18:33.955Z,2.60
2018-06-03T13:30:13.221Z,2.40
2018-06-03T13:32:42.113Z,2.40
2018-06-03T13:35:11.441Z,2.60
2018-06-03T13:39:00.257Z,2.37
2018-06-03T13:44:22.919Z,2.30
2018-06-03T13:47:04.963Z,2.53
2018-06-03T13:49:40.844Z,2.30
2018-06-03T13:52:09.701Z,2.20
2018-06-03T13:54:38.630Z,2.30
2018-06-03T14:02:47.883Z,2.57
2018-06-03T14:05:24.212Z,2.53
2018-06-03T14:07:53.129Z,2.67
2018-06-03T14:10:22.196Z,2.60
2018-06-03T14:12:51.462Z,2.20
2018-06-03T14:21:11.655Z,2.03
2018-06-03T14:23:40.754Z,2.20
2018-06-03T14:43:27.385Z,2.03
2018-06-03T14:45:56.718Z,2.17
2018-06-03T14:57:29.412Z,2.27
2018-06-03T15:01:40.368Z,2.20
2018-06-03T15:04:09.565Z,2.40
2018-06-03T15:17:06.146Z,2.30
2018-06-03T15:19:35.569Z,2.47
2018-06-03T15:22:04.815Z,2.00
2018-06-03T15:24:43.941Z,2.20
2018-06-03T15:27:18.914Z,2.37
2018-06-03T15:29:52.307Z,2.47
2018-06-03T15:38:47.384Z,2.20
2018-06-03T15:41:17.154Z,2.00
2018-06-03T15:43:51.859Z,2.20
2018-06-03T15:46:31.707Z,2.10
2018-06-03T15:49:08.515Z,2.10
2018-06-03T15:51:37.501Z,2.30
2018-06-03T15:54:06.903Z,2.00
2018-06-03T15:56:35.896Z,2.10
2018-06-03T15:59:07.968Z,3.37
2018-06-03T16:01:40.750Z,2.10
2018-06-03T16:04:15.823Z,2.00
2018-06-03T16:09:47.065Z,1.97
2018-06-03T16:12:15.979Z,2.60
2018-06-03T16:14:45.052Z,2.37
2018-06-03T16:17:20.772Z,2.00
2018-06-03T16:19:52.180Z,2.27
2018-06-03T16:22:24.545Z,2.20
2018-06-03T16:24:56.154Z,2.30
2018-06-03T16:27:25.029Z,2.30
2018-06-03T16:29:53.812Z,2.43
2018-06-03T16:32:22.743Z,2.03
2018-06-03T16:34:58.704Z,2.40
2018-06-03T16:37:28.741Z,2.37
2018-06-03T16:40:08.898Z,2.23
2018-06-03T16:42:41.225Z,2.17
2018-06-03T16:45:10.095Z,2.00
2018-06-03T16:47:39.093Z,1.97
2018-06-03T16:50:08.227Z,2.20
2018-06-03T16:52:44.522Z,2.20
2018-06-03T16:55:24.536Z,2.00
2018-06-03T16:57:56.389Z,2.17
2018-06-03T17:00:25.164Z,2.20
2018-06-03T17:02:53.929Z,2.33
2018-06-03T17:05:22.752Z,2.13
2018-06-03T17:07:51.884Z,2.60
2018-06-03T17:10:24.947Z,2.60
2018-06-03T17:12:55.015Z,2.30
2018-06-03T17:15:28.629Z,2.50
2018-06-03T17:17:58.568Z,2.20
2018-06-03T17:20:27.898Z,2.60
2018-06-03T17:22:59.321Z,2.20
2018-06-03T17:25:28.920Z,2.40
2018-06-03T17:28:03.928Z,2.20
2018-06-03T17:36:21.191Z,3.30
2018-06-03T17:38:50.357Z,2.27
2018-06-03T17:41:19.398Z,2.20
2018-06-03T17:48:11.348Z,1.80
2018-06-03T17:50:42.709Z,2.23
2018-06-03T17:53:12.027Z,2.60
2018-06-03T17:55:40.864Z,2.23
2018-06-03T17:58:09.967Z,2.23
2018-06-03T18:10:18.627Z,2.03
2018-06-03T18:12:47.513Z,2.40
2018-06-03T18:15:16.661Z,2.10
2018-06-03T18:26:54.920Z,1.93
2018-06-03T18:29:23.930Z,1.70
2018-06-03T18:31:53.031Z,1.80
2018-06-03T18:34:24.448Z,1.83
2018-06-03T18:45:51.989Z,2.13
2018-06-03T18:48:20.964Z,2.13
2018-06-03T18:50:50.081Z,2.30
2018-06-03T19:02:39.823Z,2.23
2018-06-03T19:05:08.707Z,2.30
2018-06-03T19:07:37.802Z,2.10
2018-06-03T19:19:23.149Z,2.40
2018-06-03T19:21:52.023Z,2.60
2018-06-03T19:24:22.219Z,2.57
2018-06-03T19:26:51.457Z,2.57
2018-06-03T19:29:24.971Z,2.70
2018-06-03T19:32:11.880Z,2.80
2018-06-03T19:34:51.318Z,2.70
2018-06-03T19:37:20.272Z,2.73
2018-06-03T19:39:49.154Z,2.50
2018-06-03T19:42:18.185Z,2.40
2018-06-03T19:44:47.545Z,2.40
2018-06-03T19:55:30.123Z,2.20
2018-06-03T19:57:58.953Z,2.17
2018-06-03T20:00:28.501Z,2.20
2018-06-03T20:03:12.008Z,2.10
2018-06-03T20:05:54.230Z,2.07
2018-06-03T20:11:26.167Z,3.00
2018-06-03T20:13:55.136Z,2.77
2018-06-03T20:16:24.135Z,3.07
2018-06-03T20:18:53.130Z,3.00
2018-06-03T20:29:49.799Z,3.47
2018-06-03T20:35:20.696Z,3.43
2018-06-03T20:47:36.114Z,3.63
2018-06-03T20:50:05.541Z,3.67
2018-06-03T20:52:34.650Z,3.47
2018-06-03T21:04:52.767Z,4.10
2018-06-03T21:07:21.735Z,4.27
2018-06-03T21:09:50.836Z,4.00
2018-06-03T21:15:35.009Z,4.30
2018-06-03T21:21:11.399Z,4.57
2018-06-03T21:23:40.496Z,4.77
2018-06-03T21:26:09.565Z,3.90
2018-06-03T21:28:38.805Z,4.60
2018-06-03T21:40:15.941Z,21.37
2018-06-03T21:42:44.916Z,7.83
2018-06-03T21:45:14.267Z,7.30
2018-06-03T21:56:50.809Z,3.80
2018-06-03T21:59:19.954Z,4.20
2018-06-03T22:01:49.213Z,4.20
2018-06-03T22:13:28.206Z,4.20
2018-06-03T22:15:57.656Z,4.00
2018-06-03T22:18:26.923Z,3.70
2018-06-03T22:30:04.429Z,5.00
2018-06-03T22:32:33.608Z,5.30
2018-06-03T22:35:02.605Z,4.00
2018-06-03T22:46:40.145Z,3.50
2018-06-03T22:49:09.372Z,3.73
2018-06-03T22:51:38.479Z,4.00
2018-06-03T22:54:08.668Z,3.67
2018-06-03T23:05:46.069Z,4.20
2018-06-03T23:08:15.094Z,4.20
2018-06-03T23:10:44.252Z,3.77
2018-06-03T23:22:22.320Z,4.33
2018-06-03T23:24:51.219Z,4.03
2018-06-03T23:27:20.212Z,4.00
2018-06-03T23:38:57.392Z,3.90
2018-06-03T23:41:26.572Z,4.37
2018-06-03T23:43:55.632Z,4.50
2018-06-03T23:55:33.326Z,4.20
2018-06-03T23:58:02.889Z,4.70
